Fritch, TX (79036)

10:43 AM CST on December 10, 2016 (GMT -0600)
Calle Cuesta Drive | | Change Station

Elev 3218 ft 35.63 °N, 101.57 °W | Updated 7 minutes ago

Clear
Clear
40.1 °F
Feels Like 40 °F
N
0.0
Wind Variable Wind from North
Gusts 1.2 mph

Today
High -- | Low -- °F
--% Chance of Precip.
Yesterday
High -- | Low -- °F
Precip. -- in
Pressure 30.12 in
Visibility 10.0 miles
Clouds Clear
Windchill 40 °F
Dew Point 33 °F
Humidity 76%
Rainfall 0.00 in
Snow Depth Not available.
7:45 AM 5:33 PM
Waxing Gibbous, 84% visible
METAR KBGD 101551Z AUTO 19006KT 10SM CLR 02/M02 A3009 RMK AO2 SLP199 T00171017
Pressure 30.12 in
Visibility 10.0 miles
Clouds Clear
Windchill 40 °F
Dew Point 33 °F
Humidity 76%
Rainfall 0.00 in
Snow Depth Not available.
7:45 AM 5:33 PM
Waxing Gibbous, 84% visible
METAR KBGD 101551Z AUTO 19006KT 10SM CLR 02/M02 A3009 RMK AO2 SLP199 T00171017

10-Day Weather Forecast

Almanac

Astronomy

Dec. 10, 2016 Rise Set
Actual Time
Civil Twilight
Nautical Twilight
Astronomical Twilight
Moon
Length of Visible Light
Length of Day
Tomorrow will be .
, % of the Moon is Illuminated

Today's Extremes

State Highs State Lows

Community

WunderPhotos

Upload Photos

1,956,569 photos uploaded!

WunderBlog® & News

Nearby

Air Quality

  Air Quality AQ Index Pollutant
Not available.

Snow Depth

Station Depth Elevation

Earthquake Activity

City Distance Mag. Time & Date
Minimum magnitude displayed is 2.5.

Coastal Water Temperatures

Place Temperature

Stations

Nearby Weather Stations

Station Location Temp. Windchill Dew Point Humidity Wind Precip. Elev Updated Type
                   

Watches & Warnings

There are currently no watches in effect.